GOJ1997 LFLS-LFMD
Flight info
| Callsign | GOJ1997 |
|---|---|
| Flight time | 1h 20m |
| Altitude | 10000 |
| Route | ROMAM T43 BEPER DCT EVALA DCT TUPOX |
| Aircraft | DA62/L-SDFGRY/C |
Departure
| Time | 2026-05-08 19:39 |
|---|---|
| Airport | Grenoble Alpes Isère Airport (LFLS) |
Arrival
| Time | 2026-05-08 20:59 |
|---|---|
| Airport | Cannes Mandelieu Airport (LFMD) |
| Time | Latitude | Longitude | Altitude | Speed | Heading |
|---|---|---|---|---|---|
| 2026-05-08 19:23 | 45.35957 | 5.33052 | 1275 ft | 0 kts | 134° |
| 2026-05-08 19:33 | 45.35946 | 5.33057 | 1275 ft | 3 kts | 190° |
| 2026-05-08 19:34 | 45.35937 | 5.33028 | 1275 ft | 5 kts | 311° |
| 2026-05-08 19:34 | 45.35958 | 5.33016 | 1275 ft | 0 kts | 344° |
| 2026-05-08 19:34 | 45.35996 | 5.33004 | 1275 ft | 16 kts | 347° |
| 2026-05-08 19:35 | 45.36103 | 5.32953 | 1274 ft | 16 kts | 341° |
| 2026-05-08 19:35 | 45.36111 | 5.32949 | 1274 ft | 1 kts | 326° |
| 2026-05-08 19:35 | 45.36140 | 5.32844 | 1274 ft | 19 kts | 266° |
| 2026-05-08 19:35 | 45.36140 | 5.32597 | 1273 ft | 30 kts | 271° |
| 2026-05-08 19:36 | 45.36141 | 5.32303 | 1271 ft | 31 kts | 270° |
| 2026-05-08 19:36 | 45.36142 | 5.31996 | 1269 ft | 31 kts | 270° |
| 2026-05-08 19:36 | 45.36143 | 5.31684 | 1268 ft | 32 kts | 270° |
| 2026-05-08 19:36 | 45.36144 | 5.31370 | 1266 ft | 31 kts | 270° |
| 2026-05-08 19:37 | 45.36145 | 5.31092 | 1265 ft | 16 kts | 277° |
| 2026-05-08 19:37 | 45.36161 | 5.31040 | 1264 ft | 11 kts | 309° |
| 2026-05-08 19:37 | 45.36238 | 5.31012 | 1263 ft | 16 kts | 20° |
| 2026-05-08 19:37 | 45.36302 | 5.31101 | 1263 ft | 0 kts | 88° |
| 2026-05-08 19:38 | 45.36302 | 5.31102 | 1263 ft | 3 kts | 88° |
| 2026-05-08 19:38 | 45.36302 | 5.31414 | 1264 ft | 60 kts | 91° |
| 2026-05-08 19:39 | 45.36297 | 5.32230 | 1289 ft | 99 kts | 91° |
| 2026-05-08 19:39 | 45.36261 | 5.33302 | 1413 ft | 117 kts | 94° |
| 2026-05-08 19:39 | 45.36270 | 5.34537 | 1559 ft | 125 kts | 90° |
| 2026-05-08 19:39 | 45.36280 | 5.35733 | 1951 ft | 120 kts | 94° |
| 2026-05-08 19:40 | 45.36280 | 5.36939 | 2264 ft | 124 kts | 96° |
| 2026-05-08 19:40 | 45.36277 | 5.38173 | 2594 ft | 125 kts | 98° |
| 2026-05-08 19:40 | 45.36274 | 5.39421 | 2944 ft | 127 kts | 97° |
| 2026-05-08 19:40 | 45.36481 | 5.40657 | 3296 ft | 136 kts | 60° |
| 2026-05-08 19:41 | 45.37255 | 5.41441 | 3639 ft | 141 kts | 13° |
| 2026-05-08 19:41 | 45.38197 | 5.41284 | 3988 ft | 136 kts | 327° |
| 2026-05-08 19:41 | 45.38803 | 5.40338 | 4339 ft | 127 kts | 285° |
| 2026-05-08 19:41 | 45.38862 | 5.39162 | 4687 ft | 119 kts | 249° |
| 2026-05-08 19:42 | 45.38444 | 5.38202 | 5026 ft | 114 kts | 217° |
| 2026-05-08 19:42 | 45.37763 | 5.37635 | 5375 ft | 113 kts | 206° |
| 2026-05-08 19:42 | 45.37072 | 5.37089 | 5731 ft | 113 kts | 206° |
| 2026-05-08 19:42 | 45.36377 | 5.36546 | 6092 ft | 114 kts | 205° |
| 2026-05-08 19:43 | 45.35680 | 5.36003 | 6455 ft | 114 kts | 205° |
| 2026-05-08 19:43 | 45.34976 | 5.35455 | 6790 ft | 116 kts | 205° |
| 2026-05-08 19:43 | 45.34274 | 5.34909 | 7124 ft | 117 kts | 205° |
| 2026-05-08 19:43 | 45.33557 | 5.34352 | 7456 ft | 118 kts | 206° |
| 2026-05-08 19:44 | 45.32830 | 5.33788 | 7785 ft | 120 kts | 206° |
| 2026-05-08 19:44 | 45.32096 | 5.33218 | 8134 ft | 121 kts | 206° |
| 2026-05-08 19:44 | 45.31356 | 5.32643 | 8470 ft | 122 kts | 206° |
| 2026-05-08 19:44 | 45.30608 | 5.32062 | 8830 ft | 123 kts | 207° |
| 2026-05-08 19:45 | 45.29849 | 5.31474 | 9189 ft | 124 kts | 207° |
| 2026-05-08 19:45 | 45.29087 | 5.30883 | 9557 ft | 126 kts | 207° |
| 2026-05-08 19:45 | 45.28313 | 5.30283 | 9917 ft | 127 kts | 207° |
| 2026-05-08 19:45 | 45.27495 | 5.29650 | 10044 ft | 145 kts | 207° |
| 2026-05-08 19:46 | 45.26549 | 5.28919 | 10052 ft | 163 kts | 207° |
| 2026-05-08 19:46 | 45.25527 | 5.28130 | 10055 ft | 173 kts | 206° |
| 2026-05-08 19:46 | 45.23505 | 5.26560 | 10050 ft | 160 kts | 206° |
| 2026-05-08 19:47 | 45.22543 | 5.25816 | 10049 ft | 156 kts | 206° |
| 2026-05-08 19:47 | 45.21599 | 5.25087 | 10047 ft | 153 kts | 206° |
| 2026-05-08 19:47 | 45.20664 | 5.24364 | 10046 ft | 152 kts | 206° |
| 2026-05-08 19:47 | 45.19741 | 5.23651 | 10041 ft | 151 kts | 206° |
| 2026-05-08 19:48 | 45.18818 | 5.22939 | 10040 ft | 150 kts | 206° |
| 2026-05-08 19:48 | 45.17899 | 5.22229 | 10040 ft | 150 kts | 206° |
| 2026-05-08 19:48 | 45.16993 | 5.21530 | 10039 ft | 150 kts | 206° |
| 2026-05-08 19:48 | 45.16079 | 5.20825 | 10038 ft | 149 kts | 206° |
| 2026-05-08 19:49 | 45.15169 | 5.20123 | 10038 ft | 149 kts | 206° |
| 2026-05-08 19:49 | 45.14260 | 5.19423 | 10035 ft | 148 kts | 206° |
| 2026-05-08 19:49 | 45.13353 | 5.18724 | 10035 ft | 148 kts | 206° |
| 2026-05-08 19:49 | 45.12444 | 5.18024 | 10035 ft | 149 kts | 206° |
| 2026-05-08 19:50 | 45.11536 | 5.17325 | 10036 ft | 149 kts | 206° |
| 2026-05-08 19:50 | 45.10619 | 5.16655 | 10034 ft | 148 kts | 199° |
| 2026-05-08 19:50 | 45.09615 | 5.16417 | 10035 ft | 147 kts | 179° |
| 2026-05-08 19:50 | 45.08597 | 5.16535 | 10036 ft | 147 kts | 175° |
| 2026-05-08 19:51 | 45.07575 | 5.16649 | 10035 ft | 147 kts | 176° |
| 2026-05-08 19:51 | 45.06554 | 5.16762 | 10035 ft | 147 kts | 176° |
| 2026-05-08 19:51 | 45.05535 | 5.16875 | 10034 ft | 147 kts | 176° |
| 2026-05-08 19:51 | 45.04517 | 5.16988 | 10034 ft | 146 kts | 176° |
| 2026-05-08 19:52 | 45.03504 | 5.17101 | 10034 ft | 145 kts | 175° |
| 2026-05-08 19:52 | 45.02510 | 5.17213 | 10034 ft | 145 kts | 176° |
| 2026-05-08 19:52 | 45.01506 | 5.17325 | 10034 ft | 145 kts | 176° |
| 2026-05-08 19:52 | 45.00497 | 5.17437 | 10037 ft | 146 kts | 176° |
| 2026-05-08 19:53 | 44.99476 | 5.17551 | 10007 ft | 147 kts | 175° |
| 2026-05-08 19:53 | 44.98455 | 5.17665 | 10004 ft | 147 kts | 175° |
| 2026-05-08 19:53 | 44.97437 | 5.17779 | 10005 ft | 146 kts | 176° |
| 2026-05-08 19:53 | 44.96403 | 5.17893 | 10009 ft | 154 kts | 176° |
| 2026-05-08 19:54 | 44.95322 | 5.18014 | 10011 ft | 158 kts | 176° |
| 2026-05-08 19:54 | 44.94212 | 5.18137 | 10011 ft | 161 kts | 176° |
| 2026-05-08 19:54 | 44.93088 | 5.18264 | 10010 ft | 162 kts | 176° |
| 2026-05-08 19:54 | 44.91957 | 5.18388 | 10009 ft | 162 kts | 176° |
| 2026-05-08 19:55 | 44.90826 | 5.18514 | 10012 ft | 163 kts | 175° |
| 2026-05-08 19:55 | 44.89691 | 5.18641 | 10017 ft | 164 kts | 176° |
| 2026-05-08 19:55 | 44.88567 | 5.18766 | 10016 ft | 164 kts | 176° |
| 2026-05-08 19:55 | 44.87425 | 5.18893 | 10010 ft | 165 kts | 176° |
| 2026-05-08 19:56 | 44.86276 | 5.19020 | 10012 ft | 166 kts | 176° |
| 2026-05-08 19:56 | 44.85122 | 5.19148 | 10014 ft | 167 kts | 175° |
| 2026-05-08 19:56 | 44.83962 | 5.19277 | 10014 ft | 167 kts | 175° |
| 2026-05-08 19:56 | 44.82804 | 5.19405 | 10016 ft | 167 kts | 175° |
| 2026-05-08 19:57 | 44.81645 | 5.19534 | 10011 ft | 166 kts | 176° |
| 2026-05-08 19:57 | 44.80495 | 5.19662 | 10020 ft | 167 kts | 176° |
| 2026-05-08 19:57 | 44.79343 | 5.19790 | 10017 ft | 165 kts | 176° |
| 2026-05-08 19:57 | 44.78197 | 5.19916 | 10019 ft | 164 kts | 176° |
| 2026-05-08 19:58 | 44.77055 | 5.20042 | 10024 ft | 165 kts | 176° |
| 2026-05-08 19:58 | 44.75905 | 5.20170 | 10024 ft | 166 kts | 176° |
| 2026-05-08 19:58 | 44.74766 | 5.20296 | 10029 ft | 167 kts | 176° |
| 2026-05-08 19:58 | 44.73604 | 5.20425 | 10029 ft | 167 kts | 176° |
| 2026-05-08 19:59 | 44.72446 | 5.20553 | 10031 ft | 167 kts | 176° |
| 2026-05-08 19:59 | 44.71296 | 5.20681 | 10027 ft | 165 kts | 176° |
| 2026-05-08 19:59 | 44.70148 | 5.20807 | 10037 ft | 166 kts | 176° |
| 2026-05-08 19:59 | 44.68992 | 5.20934 | 10039 ft | 167 kts | 176° |
| 2026-05-08 20:00 | 44.67829 | 5.21061 | 10041 ft | 166 kts | 177° |
| 2026-05-08 20:00 | 44.66689 | 5.21188 | 10065 ft | 165 kts | 176° |
| 2026-05-08 20:00 | 44.65555 | 5.21314 | 10061 ft | 165 kts | 175° |
| 2026-05-08 20:00 | 44.64409 | 5.21439 | 10061 ft | 165 kts | 176° |
| 2026-05-08 20:01 | 44.63264 | 5.21566 | 10061 ft | 165 kts | 176° |
| 2026-05-08 20:01 | 44.62121 | 5.21692 | 10061 ft | 164 kts | 176° |
| 2026-05-08 20:01 | 44.60978 | 5.21817 | 10059 ft | 164 kts | 176° |
| 2026-05-08 20:01 | 44.59834 | 5.21944 | 10062 ft | 166 kts | 176° |
| 2026-05-08 20:02 | 44.58682 | 5.22071 | 10064 ft | 167 kts | 176° |
| 2026-05-08 20:02 | 44.57520 | 5.22198 | 10061 ft | 167 kts | 176° |
| 2026-05-08 20:02 | 44.56385 | 5.22323 | 10064 ft | 168 kts | 176° |
| 2026-05-08 20:02 | 44.55220 | 5.22450 | 10065 ft | 168 kts | 176° |
| 2026-05-08 20:03 | 44.54053 | 5.22579 | 10065 ft | 168 kts | 176° |
| 2026-05-08 20:03 | 44.52884 | 5.22708 | 10061 ft | 169 kts | 176° |
| 2026-05-08 20:03 | 44.51716 | 5.22836 | 10060 ft | 168 kts | 176° |
| 2026-05-08 20:03 | 44.50548 | 5.22964 | 10056 ft | 167 kts | 176° |
| 2026-05-08 20:04 | 44.49404 | 5.23090 | 10062 ft | 167 kts | 176° |
| 2026-05-08 20:04 | 44.48233 | 5.23217 | 10062 ft | 168 kts | 176° |
| 2026-05-08 20:04 | 44.47067 | 5.23345 | 10059 ft | 168 kts | 176° |
| 2026-05-08 20:04 | 44.46295 | 5.23434 | 10062 ft | 168 kts | 175° |
| 2026-05-08 20:05 | 44.45145 | 5.23798 | 10056 ft | 170 kts | 167° |
| 2026-05-08 20:05 | 44.44001 | 5.24204 | 10058 ft | 169 kts | 167° |
| 2026-05-08 20:05 | 44.42852 | 5.24605 | 10057 ft | 169 kts | 167° |
| 2026-05-08 20:05 | 44.41712 | 5.25002 | 10057 ft | 169 kts | 167° |
| 2026-05-08 20:06 | 44.40587 | 5.25395 | 10053 ft | 169 kts | 167° |
| 2026-05-08 20:06 | 44.39450 | 5.25792 | 10052 ft | 168 kts | 168° |
| 2026-05-08 20:06 | 44.38316 | 5.26188 | 10054 ft | 168 kts | 167° |
| 2026-05-08 20:06 | 44.37177 | 5.26586 | 10054 ft | 168 kts | 167° |
| 2026-05-08 20:07 | 44.36039 | 5.26982 | 10057 ft | 169 kts | 167° |
| 2026-05-08 20:07 | 44.34898 | 5.27381 | 10056 ft | 169 kts | 167° |
| 2026-05-08 20:07 | 44.33759 | 5.27777 | 10055 ft | 169 kts | 167° |
| 2026-05-08 20:07 | 44.32623 | 5.28173 | 10056 ft | 168 kts | 167° |
| 2026-05-08 20:08 | 44.31489 | 5.28568 | 10061 ft | 168 kts | 168° |
| 2026-05-08 20:08 | 44.30366 | 5.28958 | 10062 ft | 169 kts | 167° |
| 2026-05-08 20:08 | 44.29224 | 5.29356 | 10055 ft | 168 kts | 168° |
| 2026-05-08 20:08 | 44.28085 | 5.29753 | 10059 ft | 169 kts | 167° |
| 2026-05-08 20:09 | 44.26946 | 5.30149 | 10054 ft | 168 kts | 168° |
| 2026-05-08 20:09 | 44.25814 | 5.30543 | 10054 ft | 167 kts | 167° |
| 2026-05-08 20:09 | 44.24682 | 5.30935 | 10055 ft | 168 kts | 167° |
| 2026-05-08 20:09 | 44.23540 | 5.31332 | 10055 ft | 169 kts | 167° |
| 2026-05-08 20:10 | 44.22399 | 5.31728 | 10055 ft | 169 kts | 167° |
| 2026-05-08 20:10 | 44.21268 | 5.32121 | 10053 ft | 169 kts | 168° |
| 2026-05-08 20:10 | 44.20116 | 5.32521 | 10054 ft | 168 kts | 168° |
| 2026-05-08 20:10 | 44.18992 | 5.32910 | 10051 ft | 169 kts | 168° |
| 2026-05-08 20:11 | 44.17861 | 5.33303 | 10047 ft | 167 kts | 168° |
| 2026-05-08 20:11 | 44.16732 | 5.33694 | 10053 ft | 167 kts | 168° |
| 2026-05-08 20:11 | 44.15603 | 5.34085 | 10053 ft | 167 kts | 167° |
| 2026-05-08 20:11 | 44.14479 | 5.34474 | 10094 ft | 165 kts | 167° |
| 2026-05-08 20:12 | 44.13398 | 5.34849 | 10342 ft | 150 kts | 167° |
| 2026-05-08 20:12 | 44.12465 | 5.35173 | 10800 ft | 134 kts | 168° |
| 2026-05-08 20:12 | 44.11561 | 5.35484 | 11158 ft | 134 kts | 168° |
| 2026-05-08 20:12 | 44.10651 | 5.35798 | 11481 ft | 135 kts | 168° |
| 2026-05-08 20:13 | 44.09732 | 5.36115 | 11791 ft | 137 kts | 168° |
| 2026-05-08 20:13 | 44.08802 | 5.36436 | 12103 ft | 138 kts | 169° |
| 2026-05-08 20:13 | 44.07867 | 5.36759 | 12444 ft | 138 kts | 169° |
| 2026-05-08 20:13 | 44.06936 | 5.37081 | 12792 ft | 138 kts | 169° |
| 2026-05-08 20:14 | 44.06000 | 5.37404 | 13128 ft | 139 kts | 169° |
| 2026-05-08 20:14 | 44.05056 | 5.37730 | 13475 ft | 140 kts | 169° |
| 2026-05-08 20:14 | 44.04107 | 5.38057 | 13840 ft | 141 kts | 170° |
| 2026-05-08 20:14 | 44.03153 | 5.38386 | 14155 ft | 142 kts | 170° |
| 2026-05-08 20:15 | 44.02204 | 5.38713 | 14464 ft | 142 kts | 170° |
| 2026-05-08 20:15 | 44.01239 | 5.39046 | 14759 ft | 143 kts | 170° |
| 2026-05-08 20:15 | 44.00267 | 5.39380 | 15049 ft | 144 kts | 170° |
| 2026-05-08 20:15 | 43.99289 | 5.39717 | 15335 ft | 145 kts | 170° |
| 2026-05-08 20:16 | 43.98305 | 5.40056 | 15619 ft | 146 kts | 170° |
| 2026-05-08 20:16 | 43.97329 | 5.40483 | 15899 ft | 150 kts | 157° |
| 2026-05-08 20:16 | 43.96417 | 5.41192 | 16168 ft | 151 kts | 156° |
| 2026-05-08 20:16 | 43.95491 | 5.41889 | 16433 ft | 152 kts | 156° |
| 2026-05-08 20:17 | 43.94562 | 5.42589 | 16691 ft | 152 kts | 156° |
| 2026-05-08 20:17 | 43.93626 | 5.43295 | 16943 ft | 153 kts | 156° |
| 2026-05-08 20:17 | 43.92687 | 5.44004 | 17173 ft | 154 kts | 156° |
| 2026-05-08 20:17 | 43.91742 | 5.44717 | 17388 ft | 155 kts | 156° |
| 2026-05-08 20:18 | 43.90793 | 5.45433 | 17607 ft | 155 kts | 156° |
| 2026-05-08 20:18 | 43.89840 | 5.46152 | 17811 ft | 156 kts | 156° |
| 2026-05-08 20:18 | 43.88885 | 5.46872 | 18030 ft | 156 kts | 156° |
| 2026-05-08 20:18 | 43.87940 | 5.47584 | 18230 ft | 157 kts | 156° |
| 2026-05-08 20:19 | 43.86977 | 5.48310 | 18420 ft | 158 kts | 156° |
| 2026-05-08 20:19 | 43.86010 | 5.49038 | 18592 ft | 159 kts | 157° |
| 2026-05-08 20:19 | 43.85037 | 5.49770 | 18737 ft | 159 kts | 157° |
| 2026-05-08 20:19 | 43.84059 | 5.50506 | 18876 ft | 160 kts | 157° |
| 2026-05-08 20:20 | 43.83075 | 5.51247 | 18994 ft | 161 kts | 157° |
| 2026-05-08 20:20 | 43.82089 | 5.51989 | 19113 ft | 162 kts | 157° |
| 2026-05-08 20:20 | 43.81097 | 5.52734 | 19263 ft | 162 kts | 157° |
| 2026-05-08 20:20 | 43.80104 | 5.53479 | 19392 ft | 163 kts | 157° |
| 2026-05-08 20:21 | 43.79104 | 5.54231 | 19522 ft | 163 kts | 157° |
| 2026-05-08 20:21 | 43.78119 | 5.54971 | 19647 ft | 164 kts | 157° |
| 2026-05-08 20:21 | 43.77112 | 5.55726 | 19699 ft | 169 kts | 157° |
| 2026-05-08 20:21 | 43.76048 | 5.56521 | 19669 ft | 177 kts | 156° |
| 2026-05-08 20:22 | 43.75061 | 5.57616 | 19665 ft | 187 kts | 135° |
| 2026-05-08 20:22 | 43.74245 | 5.59073 | 19494 ft | 196 kts | 132° |
| 2026-05-08 20:22 | 43.73420 | 5.60550 | 19109 ft | 192 kts | 133° |
| 2026-05-08 20:22 | 43.72606 | 5.61995 | 18735 ft | 189 kts | 133° |
| 2026-05-08 20:23 | 43.71804 | 5.63416 | 18364 ft | 186 kts | 133° |
| 2026-05-08 20:23 | 43.71015 | 5.64815 | 17936 ft | 184 kts | 133° |
| 2026-05-08 20:23 | 43.70242 | 5.66186 | 17625 ft | 177 kts | 133° |
| 2026-05-08 20:23 | 43.69493 | 5.67513 | 17279 ft | 174 kts | 133° |
| 2026-05-08 20:24 | 43.68752 | 5.68824 | 16940 ft | 172 kts | 133° |
| 2026-05-08 20:24 | 43.68006 | 5.70141 | 16600 ft | 178 kts | 133° |
| 2026-05-08 20:24 | 43.67230 | 5.71509 | 16239 ft | 187 kts | 132° |
| 2026-05-08 20:24 | 43.66415 | 5.72949 | 15865 ft | 194 kts | 132° |
| 2026-05-08 20:25 | 43.65568 | 5.74439 | 15474 ft | 200 kts | 131° |
| 2026-05-08 20:25 | 43.64711 | 5.75947 | 15079 ft | 199 kts | 131° |
| 2026-05-08 20:25 | 43.63854 | 5.77456 | 14685 ft | 199 kts | 131° |
| 2026-05-08 20:25 | 43.62997 | 5.78960 | 14292 ft | 199 kts | 131° |
| 2026-05-08 20:26 | 43.62138 | 5.80468 | 13896 ft | 200 kts | 131° |
| 2026-05-08 20:26 | 43.61290 | 5.81956 | 13487 ft | 200 kts | 131° |
| 2026-05-08 20:26 | 43.60432 | 5.83460 | 13092 ft | 199 kts | 131° |
| 2026-05-08 20:26 | 43.59577 | 5.84959 | 12701 ft | 198 kts | 131° |
| 2026-05-08 20:27 | 43.58723 | 5.86456 | 12311 ft | 198 kts | 131° |
| 2026-05-08 20:27 | 43.57875 | 5.87941 | 12065 ft | 192 kts | 131° |
| 2026-05-08 20:27 | 43.57088 | 5.89330 | 12062 ft | 176 kts | 131° |
| 2026-05-08 20:27 | 43.56355 | 5.90618 | 12056 ft | 165 kts | 132° |
| 2026-05-08 20:28 | 43.55656 | 5.91843 | 11942 ft | 163 kts | 132° |
| 2026-05-08 20:28 | 43.54936 | 5.93100 | 11691 ft | 170 kts | 132° |
| 2026-05-08 20:28 | 43.54197 | 5.94395 | 11446 ft | 174 kts | 132° |
| 2026-05-08 20:28 | 43.53444 | 5.95716 | 11201 ft | 176 kts | 132° |
| 2026-05-08 20:29 | 43.52685 | 5.97047 | 10952 ft | 177 kts | 131° |
| 2026-05-08 20:29 | 43.51922 | 5.98385 | 10713 ft | 178 kts | 131° |
| 2026-05-08 20:29 | 43.51156 | 5.99725 | 10474 ft | 178 kts | 131° |
| 2026-05-08 20:29 | 43.50390 | 6.01066 | 10232 ft | 178 kts | 132° |
| 2026-05-08 20:30 | 43.49633 | 6.02390 | 9994 ft | 178 kts | 132° |
| 2026-05-08 20:30 | 43.48867 | 6.03728 | 9740 ft | 178 kts | 132° |
| 2026-05-08 20:30 | 43.48100 | 6.05063 | 9477 ft | 177 kts | 131° |
| 2026-05-08 20:30 | 43.47340 | 6.06391 | 9217 ft | 176 kts | 131° |
| 2026-05-08 20:31 | 43.46592 | 6.07717 | 8960 ft | 175 kts | 128° |
| 2026-05-08 20:31 | 43.45938 | 6.09129 | 8701 ft | 175 kts | 124° |
| 2026-05-08 20:31 | 43.45301 | 6.10551 | 8443 ft | 174 kts | 124° |
| 2026-05-08 20:31 | 43.44656 | 6.11946 | 8191 ft | 172 kts | 124° |
| 2026-05-08 20:32 | 43.44010 | 6.13329 | 7949 ft | 171 kts | 124° |
| 2026-05-08 20:32 | 43.43366 | 6.14707 | 7701 ft | 171 kts | 124° |
| 2026-05-08 20:32 | 43.42727 | 6.16074 | 7454 ft | 169 kts | 124° |
| 2026-05-08 20:32 | 43.42093 | 6.17429 | 7209 ft | 168 kts | 124° |
| 2026-05-08 20:33 | 43.41466 | 6.18772 | 6964 ft | 166 kts | 124° |
| 2026-05-08 20:33 | 43.40850 | 6.20087 | 6726 ft | 165 kts | 123° |
| 2026-05-08 20:33 | 43.40231 | 6.21411 | 6485 ft | 164 kts | 123° |
| 2026-05-08 20:33 | 43.39617 | 6.22721 | 6233 ft | 162 kts | 123° |
| 2026-05-08 20:34 | 43.39006 | 6.24026 | 6083 ft | 163 kts | 123° |
| 2026-05-08 20:34 | 43.38398 | 6.25322 | 6082 ft | 159 kts | 123° |
| 2026-05-08 20:34 | 43.37210 | 6.27855 | 6082 ft | 156 kts | 123° |
| 2026-05-08 20:35 | 43.36624 | 6.29105 | 6082 ft | 156 kts | 123° |
| 2026-05-08 20:35 | 43.36036 | 6.30357 | 6081 ft | 155 kts | 123° |
| 2026-05-08 20:35 | 43.35450 | 6.31605 | 6080 ft | 155 kts | 123° |
| 2026-05-08 20:35 | 43.34867 | 6.32846 | 6080 ft | 155 kts | 123° |
| 2026-05-08 20:36 | 43.34284 | 6.34086 | 6079 ft | 155 kts | 123° |
| 2026-05-08 20:36 | 43.33700 | 6.35328 | 6079 ft | 155 kts | 123° |
| 2026-05-08 20:36 | 43.33116 | 6.36569 | 6080 ft | 157 kts | 123° |
| 2026-05-08 20:36 | 43.32452 | 6.37798 | 6076 ft | 164 kts | 139° |
| 2026-05-08 20:37 | 43.31376 | 6.38294 | 6073 ft | 170 kts | 179° |
| 2026-05-08 20:37 | 43.30290 | 6.37678 | 6067 ft | 176 kts | 221° |
| 2026-05-08 20:37 | 43.29772 | 6.36178 | 6074 ft | 180 kts | 264° |
| 2026-05-08 20:37 | 43.30096 | 6.34556 | 6072 ft | 182 kts | 300° |
| 2026-05-08 20:38 | 43.30822 | 6.33123 | 6073 ft | 183 kts | 306° |
| 2026-05-08 20:38 | 43.31560 | 6.31698 | 6074 ft | 183 kts | 304° |
| 2026-05-08 20:38 | 43.32274 | 6.30245 | 6074 ft | 184 kts | 303° |
| 2026-05-08 20:38 | 43.33024 | 6.28828 | 6071 ft | 184 kts | 315° |
| 2026-05-08 20:39 | 43.34168 | 6.28129 | 6071 ft | 182 kts | 358° |
| 2026-05-08 20:39 | 43.35334 | 6.28640 | 6070 ft | 177 kts | 41° |
| 2026-05-08 20:39 | 43.35921 | 6.30063 | 6068 ft | 172 kts | 84° |
| 2026-05-08 20:39 | 43.35686 | 6.31626 | 6070 ft | 169 kts | 120° |
| 2026-05-08 20:40 | 43.34994 | 6.32916 | 6077 ft | 168 kts | 129° |
| 2026-05-08 20:40 | 43.34302 | 6.34180 | 6077 ft | 167 kts | 126° |
| 2026-05-08 20:40 | 43.33645 | 6.35501 | 6076 ft | 167 kts | 123° |
| 2026-05-08 20:40 | 43.33013 | 6.36841 | 6076 ft | 167 kts | 123° |
| 2026-05-08 20:41 | 43.32381 | 6.38182 | 6071 ft | 167 kts | 123° |
| 2026-05-08 20:41 | 43.31749 | 6.39517 | 6071 ft | 166 kts | 123° |
| 2026-05-08 20:41 | 43.31117 | 6.40846 | 6078 ft | 167 kts | 124° |
| 2026-05-08 20:41 | 43.30480 | 6.42190 | 6073 ft | 168 kts | 123° |
| 2026-05-08 20:42 | 43.29840 | 6.43538 | 6074 ft | 169 kts | 123° |
| 2026-05-08 20:42 | 43.29198 | 6.44887 | 6072 ft | 168 kts | 123° |
| 2026-05-08 20:42 | 43.28558 | 6.46233 | 6071 ft | 168 kts | 123° |
| 2026-05-08 20:42 | 43.27962 | 6.47616 | 6064 ft | 169 kts | 112° |
| 2026-05-08 20:43 | 43.27736 | 6.49197 | 6067 ft | 169 kts | 96° |
| 2026-05-08 20:43 | 43.27635 | 6.50806 | 6065 ft | 169 kts | 96° |
| 2026-05-08 20:43 | 43.27527 | 6.52413 | 6066 ft | 169 kts | 96° |
| 2026-05-08 20:43 | 43.27418 | 6.54001 | 6065 ft | 169 kts | 96° |
| 2026-05-08 20:44 | 43.27309 | 6.55602 | 6063 ft | 169 kts | 96° |
| 2026-05-08 20:44 | 43.27200 | 6.57207 | 6049 ft | 169 kts | 97° |
| 2026-05-08 20:44 | 43.27090 | 6.58822 | 5981 ft | 172 kts | 96° |
| 2026-05-08 20:44 | 43.26979 | 6.60447 | 5980 ft | 170 kts | 96° |
| 2026-05-08 20:45 | 43.26869 | 6.62059 | 5977 ft | 169 kts | 96° |
| 2026-05-08 20:45 | 43.26796 | 6.63124 | 5980 ft | 169 kts | 96° |
| 2026-05-08 20:45 | 43.26648 | 6.65267 | 5978 ft | 169 kts | 96° |
| 2026-05-08 20:45 | 43.26538 | 6.66872 | 5978 ft | 169 kts | 96° |
| 2026-05-08 20:46 | 43.26427 | 6.68472 | 5979 ft | 168 kts | 97° |
| 2026-05-08 20:46 | 43.26324 | 6.70073 | 5975 ft | 169 kts | 94° |
| 2026-05-08 20:46 | 43.26533 | 6.71679 | 5836 ft | 178 kts | 70° |
| 2026-05-08 20:46 | 43.27108 | 6.73174 | 5554 ft | 171 kts | 62° |
| 2026-05-08 20:47 | 43.27648 | 6.74503 | 5296 ft | 153 kts | 63° |
| 2026-05-08 20:47 | 43.28148 | 6.75758 | 5044 ft | 147 kts | 63° |
| 2026-05-08 20:47 | 43.28629 | 6.76973 | 4810 ft | 143 kts | 63° |
| 2026-05-08 20:47 | 43.29098 | 6.78158 | 4576 ft | 139 kts | 63° |
| 2026-05-08 20:48 | 43.29554 | 6.79309 | 4348 ft | 136 kts | 63° |
| 2026-05-08 20:48 | 43.30000 | 6.80434 | 4129 ft | 133 kts | 63° |
| 2026-05-08 20:48 | 43.30439 | 6.81542 | 3913 ft | 134 kts | 63° |
| 2026-05-08 20:48 | 43.30909 | 6.82731 | 3680 ft | 148 kts | 62° |
| 2026-05-08 20:49 | 43.31417 | 6.84015 | 3428 ft | 157 kts | 62° |
| 2026-05-08 20:49 | 43.31944 | 6.85347 | 3161 ft | 158 kts | 62° |
| 2026-05-08 20:49 | 43.32461 | 6.86654 | 2947 ft | 154 kts | 62° |
| 2026-05-08 20:49 | 43.32957 | 6.87909 | 2849 ft | 145 kts | 62° |
| 2026-05-08 20:50 | 43.33428 | 6.89102 | 2750 ft | 139 kts | 62° |
| 2026-05-08 20:50 | 43.33884 | 6.90257 | 2654 ft | 135 kts | 62° |
| 2026-05-08 20:50 | 43.34328 | 6.91384 | 2561 ft | 133 kts | 63° |
| 2026-05-08 20:50 | 43.34618 | 6.92119 | 2500 ft | 131 kts | 63° |
| 2026-05-08 20:51 | 43.35196 | 6.93586 | 2378 ft | 130 kts | 63° |
| 2026-05-08 20:51 | 43.35481 | 6.94307 | 2317 ft | 129 kts | 63° |
| 2026-05-08 20:51 | 43.35911 | 6.95399 | 2229 ft | 134 kts | 62° |
| 2026-05-08 20:51 | 43.36392 | 6.96611 | 2129 ft | 154 kts | 60° |
| 2026-05-08 20:52 | 43.37198 | 6.97630 | 2021 ft | 162 kts | 29° |
| 2026-05-08 20:52 | 43.38279 | 6.97996 | 2019 ft | 161 kts | 1° |
| 2026-05-08 20:52 | 43.39355 | 6.97821 | 2017 ft | 151 kts | 353° |
| 2026-05-08 20:52 | 43.40371 | 6.97634 | 2015 ft | 144 kts | 354° |
| 2026-05-08 20:53 | 43.41350 | 6.97461 | 2012 ft | 140 kts | 354° |
| 2026-05-08 20:53 | 43.42303 | 6.97294 | 2012 ft | 136 kts | 353° |
| 2026-05-08 20:53 | 43.43234 | 6.97128 | 2011 ft | 134 kts | 353° |
| 2026-05-08 20:53 | 43.44155 | 6.96970 | 1977 ft | 133 kts | 355° |
| 2026-05-08 20:54 | 43.45034 | 6.96811 | 1895 ft | 121 kts | 352° |
| 2026-05-08 20:54 | 43.45819 | 6.96650 | 1858 ft | 109 kts | 353° |
| 2026-05-08 20:54 | 43.46557 | 6.96502 | 1781 ft | 106 kts | 352° |
| 2026-05-08 20:54 | 43.47274 | 6.96598 | 1719 ft | 104 kts | 39° |
| 2026-05-08 20:55 | 43.47421 | 6.97481 | 1843 ft | 101 kts | 117° |
| 2026-05-08 20:55 | 43.46960 | 6.98195 | 1974 ft | 99 kts | 131° |
| 2026-05-08 20:55 | 43.46468 | 6.98896 | 2018 ft | 107 kts | 134° |
| 2026-05-08 20:55 | 43.45827 | 6.99424 | 2017 ft | 117 kts | 178° |
| 2026-05-08 20:56 | 43.45142 | 6.98869 | 2021 ft | 123 kts | 242° |
| 2026-05-08 20:56 | 43.45179 | 6.97720 | 2023 ft | 128 kts | 303° |
| 2026-05-08 20:56 | 43.45936 | 6.97082 | 1968 ft | 136 kts | 343° |
| 2026-05-08 20:56 | 43.46849 | 6.96765 | 1837 ft | 132 kts | 346° |
| 2026-05-08 20:57 | 43.47690 | 6.96495 | 1718 ft | 115 kts | 348° |
| 2026-05-08 20:57 | 43.48425 | 6.96270 | 1629 ft | 107 kts | 349° |
| 2026-05-08 20:57 | 43.49165 | 6.96091 | 1443 ft | 110 kts | 352° |
| 2026-05-08 20:57 | 43.49923 | 6.95956 | 1264 ft | 110 kts | 354° |
| 2026-05-08 20:58 | 43.50686 | 6.95856 | 1077 ft | 109 kts | 354° |
| 2026-05-08 20:58 | 43.51432 | 6.95721 | 866 ft | 105 kts | 351° |
| 2026-05-08 20:58 | 43.52130 | 6.95551 | 632 ft | 99 kts | 350° |
| 2026-05-08 20:58 | 43.52804 | 6.95433 | 418 ft | 96 kts | 355° |
| 2026-05-08 20:59 | 43.53464 | 6.95325 | 239 ft | 95 kts | 353° |
| 2026-05-08 20:59 | 43.54107 | 6.95212 | 66 ft | 91 kts | 352° |
| 2026-05-08 20:59 | 43.54710 | 6.95107 | 16 ft | 82 kts | 353° |
| 2026-05-08 20:59 | 43.55148 | 6.95027 | 10 ft | 36 kts | 352° |
| 2026-05-08 21:00 | 43.55344 | 6.94992 | 13 ft | 13 kts | 358° |
| 2026-05-08 21:00 | 43.55388 | 6.95067 | 13 ft | 13 kts | 86° |
| 2026-05-08 21:00 | 43.55356 | 6.95148 | 13 ft | 13 kts | 161° |
| 2026-05-08 21:00 | 43.55127 | 6.95196 | 12 ft | 38 kts | 173° |
| 2026-05-08 21:01 | 43.54896 | 6.95237 | 12 ft | 30 kts | 171° |
| 2026-05-08 21:01 | 43.54704 | 6.95273 | 12 ft | 26 kts | 172° |
| 2026-05-08 21:01 | 43.54538 | 6.95306 | 12 ft | 22 kts | 167° |
| 2026-05-08 21:01 | 43.54481 | 6.95360 | 11 ft | 6 kts | 85° |
| 2026-05-08 21:02 | 43.54481 | 6.95426 | 11 ft | 7 kts | 54° |
| 2026-05-08 21:02 | 43.54533 | 6.95500 | 12 ft | 23 kts | 45° |
| 2026-05-08 21:02 | 43.54666 | 6.95682 | 12 ft | 28 kts | 45° |
| 2026-05-08 21:02 | 43.54791 | 6.95858 | 13 ft | 23 kts | 45° |
| 2026-05-08 21:03 | 43.54871 | 6.95939 | 13 ft | 6 kts | 331° |
| 2026-05-08 21:03 | 43.54911 | 6.95863 | 13 ft | 13 kts | 289° |
| 2026-05-08 21:03 | 43.54903 | 6.95749 | 13 ft | 6 kts | 225° |
| 2026-05-08 21:03 | 43.54897 | 6.95728 | 13 ft | 2 kts | 295° |
| 2026-05-08 21:04 | 43.54909 | 6.95718 | 13 ft | 0 kts | 6° |